createdAt,value
2023-04-09T00:00:33.585Z,84.67
2023-04-09T00:01:35.403Z,84.56
2023-04-09T00:02:37.235Z,84.43
2023-04-09T00:03:39.595Z,84.44
2023-04-09T00:04:41.575Z,84.32
2023-04-09T00:05:43.308Z,84.46
2023-04-09T00:06:45.074Z,84.50
2023-04-09T00:07:46.796Z,84.23
2023-04-09T00:08:48.525Z,84.72
2023-04-09T00:09:50.292Z,85.15
2023-04-09T00:10:53.382Z,84.95
2023-04-09T00:11:55.190Z,84.84
2023-04-09T00:12:56.946Z,85.22
2023-04-09T00:13:59.023Z,85.44
2023-04-09T00:15:00.778Z,85.59
2023-04-09T00:16:02.576Z,85.47
2023-04-09T00:17:04.324Z,85.12
2023-04-09T00:18:06.098Z,85.09
2023-04-09T00:19:07.857Z,84.87
2023-04-09T00:20:09.749Z,84.63
2023-04-09T00:21:11.554Z,84.90
2023-04-09T00:22:13.316Z,85.13
2023-04-09T00:23:15.014Z,85.64
2023-04-09T00:24:17.452Z,85.83
2023-04-09T00:25:19.239Z,85.72
2023-04-09T00:26:20.985Z,85.38
2023-04-09T00:27:22.967Z,84.98
2023-04-09T00:28:24.719Z,84.91
2023-04-09T00:29:26.498Z,84.65
2023-04-09T00:30:31.688Z,84.60
2023-04-09T00:31:33.461Z,84.53
2023-04-09T00:32:35.245Z,84.59
2023-04-09T00:33:36.980Z,84.70
2023-04-09T00:34:38.791Z,84.86
2023-04-09T00:35:40.546Z,85.33
2023-04-09T00:36:42.291Z,85.73
2023-04-09T00:37:44.311Z,85.96
2023-04-09T00:38:46.046Z,86.01
2023-04-09T00:39:47.789Z,86.21
2023-04-09T00:40:50.491Z,86.25
2023-04-09T00:42:00.257Z,86.26
2023-04-09T00:43:01.965Z,86.14
2023-04-09T00:44:03.728Z,86.15
2023-04-09T00:45:06.448Z,86.52
2023-04-09T00:46:08.185Z,86.68
2023-04-09T00:47:10.295Z,86.80
2023-04-09T00:48:13.875Z,86.87
2023-04-09T00:49:15.639Z,87.01
2023-04-09T00:50:17.417Z,87.07
2023-04-09T00:51:19.222Z,86.85
2023-04-09T00:52:21.441Z,86.92
2023-04-09T00:53:23.412Z,87.04
2023-04-09T00:54:25.216Z,87.48
2023-04-09T00:55:27.116Z,87.68
2023-04-09T00:56:30.397Z,87.84
2023-04-09T00:57:32.464Z,87.97
2023-04-09T00:58:34.180Z,88.10
2023-04-09T00:59:38.836Z,88.43
2023-04-09T01:00:40.897Z,88.72
2023-04-09T01:01:42.778Z,88.90
2023-04-09T01:02:44.902Z,89.05
2023-04-09T01:03:47.027Z,89.19
2023-04-09T01:04:51.133Z,89.27
2023-04-09T01:05:58.759Z,89.17
2023-04-09T01:07:12.586Z,88.98
2023-04-09T01:08:39.252Z,89.24
2023-04-09T01:09:51.721Z,88.98
2023-04-09T01:11:30.991Z,88.31
2023-04-09T01:12:36.832Z,88.09
2023-04-09T01:14:05.287Z,87.90
2023-04-09T01:15:13.856Z,87.32
2023-04-09T01:16:19.318Z,87.10
2023-04-09T01:17:53.007Z,86.66
2023-04-09T01:19:07.912Z,86.13
2023-04-09T01:20:14.813Z,86.13
2023-04-09T01:21:20.524Z,86.08
2023-04-09T01:22:50.025Z,86.20
2023-04-09T01:24:16.243Z,86.44
2023-04-09T01:26:00.947Z,86.61
2023-04-09T01:27:09.750Z,86.73
2023-04-09T01:28:33.073Z,86.30
2023-04-09T01:29:45.378Z,85.55
2023-04-09T01:30:53.822Z,85.40
2023-04-09T01:31:56.090Z,85.26
2023-04-09T01:32:58.932Z,84.99
2023-04-09T01:34:01.920Z,84.72
2023-04-09T01:35:06.301Z,84.49
2023-04-09T01:36:08.963Z,84.21
2023-04-09T01:37:12.455Z,84.20
2023-04-09T01:38:16.649Z,84.19
2023-04-09T01:39:18.947Z,83.95
2023-04-09T01:40:20.844Z,84.08
2023-04-09T01:41:24.944Z,83.95
2023-04-09T01:42:27.778Z,84.90
2023-04-09T01:43:32.128Z,85.19
2023-04-09T01:44:34.112Z,85.23
2023-04-09T01:45:35.968Z,85.20
2023-04-09T01:46:39.718Z,84.99
2023-04-09T01:47:42.234Z,85.63
2023-04-09T01:48:44.895Z,85.57
2023-04-09T01:49:46.974Z,85.40
2023-04-09T01:51:16.745Z,85.96
2023-04-09T01:52:18.558Z,86.13
2023-04-09T01:53:21.667Z,86.18
2023-04-09T01:54:23.458Z,86.55
2023-04-09T01:55:25.206Z,86.71
2023-04-09T01:56:26.934Z,86.97
2023-04-09T01:57:28.600Z,86.90
2023-04-09T01:58:30.292Z,87.42
2023-04-09T01:59:32.026Z,87.70
2023-04-09T02:00:40.457Z,87.74
2023-04-09T02:01:54.788Z,87.69
2023-04-09T02:03:19.646Z,88.28
2023-04-09T02:04:30.013Z,88.25
2023-04-09T02:05:38.598Z,88.42
2023-04-09T02:06:48.389Z,88.84
2023-04-09T02:07:56.190Z,89.14
2023-04-09T02:09:00.457Z,89.33
2023-04-09T02:10:03.152Z,89.20
2023-04-09T02:11:09.953Z,89.26
2023-04-09T02:12:14.435Z,89.54
2023-04-09T02:13:18.445Z,89.28
2023-04-09T02:14:20.878Z,88.99
2023-04-09T02:15:23.484Z,89.06
2023-04-09T02:16:26.915Z,88.94
2023-04-09T02:17:28.705Z,88.95
2023-04-09T02:18:30.946Z,89.08
2023-04-09T02:19:43.514Z,88.92
2023-04-09T02:20:45.201Z,88.63
2023-04-09T02:21:46.937Z,88.61
2023-04-09T02:22:48.722Z,88.89
2023-04-09T02:23:50.849Z,88.96
2023-04-09T02:24:52.633Z,88.96
2023-04-09T02:25:54.595Z,89.42
2023-04-09T02:26:56.277Z,89.77
2023-04-09T02:27:57.946Z,89.74
2023-04-09T02:28:59.600Z,89.64
2023-04-09T02:30:01.318Z,89.48
2023-04-09T02:31:03.080Z,89.58
2023-04-09T02:32:05.106Z,89.44
2023-04-09T02:33:07.162Z,89.04
2023-04-09T02:34:08.828Z,89.26
2023-04-09T02:35:10.512Z,89.15
2023-04-09T02:36:13.373Z,89.27
2023-04-09T02:37:15.126Z,89.29
2023-04-09T02:38:16.848Z,89.62
2023-04-09T02:39:18.555Z,89.38
2023-04-09T02:40:20.369Z,89.02
2023-04-09T02:41:22.026Z,89.03
2023-04-09T02:42:23.894Z,88.93
2023-04-09T02:43:25.596Z,89.01
2023-04-09T02:44:27.331Z,88.70
2023-04-09T02:45:29.067Z,88.90
2023-04-09T02:46:30.926Z,89.08
2023-04-09T02:47:32.604Z,88.97
2023-04-09T02:48:34.280Z,89.04
2023-04-09T02:49:35.991Z,89.19
2023-04-09T02:50:37.696Z,89.15
2023-04-09T02:51:39.342Z,89.27
2023-04-09T02:52:41.032Z,89.22
2023-04-09T02:53:42.691Z,89.45
2023-04-09T02:54:44.417Z,89.63
2023-04-09T02:55:46.113Z,89.75
2023-04-09T02:56:47.783Z,89.61
2023-04-09T02:57:49.449Z,89.60
2023-04-09T02:58:51.250Z,90.09
2023-04-09T02:59:53.058Z,89.94
2023-04-09T03:00:54.775Z,89.89
2023-04-09T03:01:56.519Z,90.16
2023-04-09T03:02:58.510Z,90.04
2023-04-09T03:04:01.174Z,89.52
2023-04-09T03:05:03.548Z,89.63
2023-04-09T03:06:05.300Z,89.78
2023-04-09T03:07:06.977Z,89.82
2023-04-09T03:08:08.701Z,89.85
2023-04-09T03:09:10.420Z,90.28
2023-04-09T03:10:12.121Z,90.42
2023-04-09T03:11:13.842Z,90.46
2023-04-09T03:12:15.568Z,90.30
2023-04-09T03:13:17.269Z,90.08
2023-04-09T03:14:19.030Z,89.94
2023-04-09T03:15:20.726Z,90.06
2023-04-09T03:16:25.071Z,90.36
2023-04-09T03:17:26.803Z,90.20
2023-04-09T03:18:28.502Z,90.63
2023-04-09T03:19:31.527Z,90.58
2023-04-09T03:20:33.305Z,90.72
2023-04-09T03:21:35.018Z,90.45
2023-04-09T03:22:37.822Z,90.41
2023-04-09T03:23:39.571Z,90.25
2023-04-09T03:24:41.301Z,89.73
2023-04-09T03:25:42.947Z,89.65
2023-04-09T03:26:44.597Z,89.65
2023-04-09T03:27:46.602Z,89.65
2023-04-09T03:28:48.476Z,89.36
2023-04-09T03:29:50.166Z,89.07
2023-04-09T03:30:51.846Z,89.17
2023-04-09T03:31:53.574Z,89.08
2023-04-09T03:32:55.287Z,89.11
2023-04-09T03:33:57.051Z,88.97
2023-04-09T03:34:58.751Z,89.19
2023-04-09T03:36:00.518Z,89.31
2023-04-09T03:37:02.248Z,89.38
2023-04-09T03:38:04.001Z,89.34
2023-04-09T03:39:05.613Z,89.59
2023-04-09T03:40:07.920Z,89.71
2023-04-09T03:41:09.579Z,89.53
2023-04-09T03:42:11.370Z,89.72
2023-04-09T03:43:13.125Z,89.60
2023-04-09T03:44:14.796Z,89.54
2023-04-09T03:45:16.525Z,89.51
2023-04-09T03:46:18.823Z,89.27
2023-04-09T03:47:20.633Z,89.14
2023-04-09T03:48:22.443Z,89.07
2023-04-09T03:49:24.163Z,88.90
2023-04-09T03:50:25.853Z,89.14
2023-04-09T03:51:27.567Z,89.14
2023-04-09T03:52:29.231Z,89.16
2023-04-09T03:53:31.067Z,89.02
2023-04-09T03:54:32.721Z,89.34
2023-04-09T03:55:34.412Z,89.22
2023-04-09T03:56:36.068Z,89.27
2023-04-09T03:57:37.749Z,89.28
2023-04-09T03:58:39.411Z,89.12
2023-04-09T03:59:41.108Z,89.09
2023-04-09T04:00:42.772Z,89.04
2023-04-09T04:01:44.491Z,89.15
2023-04-09T04:02:46.417Z,89.38
2023-04-09T04:03:48.360Z,89.36
2023-04-09T04:04:50.260Z,89.42
2023-04-09T04:05:52.054Z,89.12
2023-04-09T04:06:53.740Z,89.22
2023-04-09T04:07:55.423Z,89.08
2023-04-09T04:08:57.126Z,88.66
2023-04-09T04:09:58.774Z,88.24
2023-04-09T04:11:04.625Z,87.80
2023-04-09T04:12:06.343Z,87.51
2023-04-09T04:13:08.029Z,87.12
2023-04-09T04:14:09.769Z,86.86
2023-04-09T04:15:11.886Z,86.86
2023-04-09T04:16:13.648Z,87.03
2023-04-09T04:17:15.322Z,87.10
2023-04-09T04:18:17.014Z,87.05
2023-04-09T04:19:18.690Z,87.12
2023-04-09T04:20:20.508Z,86.98
2023-04-09T04:21:22.217Z,86.87
2023-04-09T04:22:26.093Z,87.01
2023-04-09T04:23:28.047Z,87.43
2023-04-09T04:24:29.774Z,87.76
2023-04-09T04:25:31.477Z,87.77
2023-04-09T04:26:33.217Z,87.63
2023-04-09T04:27:34.886Z,87.61
2023-04-09T04:28:39.846Z,87.62
2023-04-09T04:29:41.558Z,87.77
2023-04-09T04:30:43.249Z,88.04
2023-04-09T04:31:45.018Z,88.02
2023-04-09T04:32:46.814Z,88.36
2023-04-09T04:33:48.478Z,88.21
2023-04-09T04:34:50.664Z,88.31
2023-04-09T04:35:52.385Z,88.08
2023-04-09T04:36:54.101Z,88.14
2023-04-09T04:37:55.777Z,88.08
2023-04-09T04:38:57.416Z,88.02
2023-04-09T04:40:01.695Z,87.68
2023-04-09T04:41:03.735Z,87.49
2023-04-09T04:42:05.382Z,87.05
2023-04-09T04:43:07.008Z,86.62
2023-04-09T04:44:08.645Z,86.28
2023-04-09T04:45:10.465Z,86.08
2023-04-09T04:46:12.092Z,86.39
2023-04-09T04:47:13.853Z,86.32
2023-04-09T04:48:15.503Z,86.46
2023-04-09T04:49:17.162Z,86.17
2023-04-09T04:50:18.907Z,86.59
2023-04-09T04:51:20.568Z,86.43
2023-04-09T04:52:22.255Z,86.59
2023-04-09T04:53:24.296Z,86.42
2023-04-09T04:54:26.029Z,86.52
2023-04-09T04:55:27.762Z,86.50
2023-04-09T04:56:29.521Z,86.68
2023-04-09T04:57:31.222Z,87.09
2023-04-09T04:58:32.899Z,86.75
2023-04-09T04:59:37.878Z,86.55
2023-04-09T05:00:39.576Z,86.48
2023-04-09T05:01:41.363Z,86.34
2023-04-09T05:02:43.221Z,86.77
2023-04-09T05:03:45.020Z,86.71
2023-04-09T05:04:46.764Z,86.52
2023-04-09T05:05:48.442Z,86.47
2023-04-09T05:06:50.247Z,86.60
2023-04-09T05:07:51.897Z,86.19
2023-04-09T05:08:53.729Z,85.82
2023-04-09T05:09:55.591Z,85.79
2023-04-09T05:10:57.285Z,86.24
2023-04-09T05:11:58.993Z,86.09
2023-04-09T05:13:00.666Z,85.87
2023-04-09T05:14:02.294Z,86.13
2023-04-09T05:15:04.466Z,85.83
2023-04-09T05:16:06.501Z,85.85
2023-04-09T05:17:08.230Z,85.99
2023-04-09T05:18:09.919Z,86.08
2023-04-09T05:19:11.566Z,85.89
2023-04-09T05:20:13.270Z,85.71
2023-04-09T05:21:14.955Z,86.53
2023-04-09T05:22:16.715Z,86.42
2023-04-09T05:23:18.391Z,86.10
2023-04-09T05:24:20.263Z,86.04
2023-04-09T05:25:21.947Z,85.80
2023-04-09T05:26:23.857Z,85.83
2023-04-09T05:27:25.581Z,85.36
2023-04-09T05:28:27.277Z,84.64
2023-04-09T05:29:28.986Z,84.54
2023-04-09T05:30:30.697Z,83.91
2023-04-09T05:31:32.350Z,84.26
2023-04-09T05:32:34.092Z,83.97
2023-04-09T05:33:35.784Z,84.05
2023-04-09T05:34:37.473Z,83.71
2023-04-09T05:35:39.519Z,83.57
2023-04-09T05:36:41.247Z,83.85
2023-04-09T05:37:42.905Z,83.21
2023-04-09T05:38:46.899Z,82.65
2023-04-09T05:39:48.577Z,82.78
2023-04-09T05:40:50.328Z,82.77
2023-04-09T05:41:52.054Z,83.09
2023-04-09T05:42:53.711Z,83.08
2023-04-09T05:43:55.386Z,82.91
2023-04-09T05:44:57.042Z,83.08
2023-04-09T05:45:58.990Z,83.25
2023-04-09T05:47:00.874Z,82.78
2023-04-09T05:48:02.829Z,82.08
2023-04-09T05:49:04.578Z,82.08
2023-04-09T05:50:06.620Z,81.92
2023-04-09T05:51:08.368Z,81.64
2023-04-09T05:52:10.035Z,81.20
2023-04-09T05:53:11.941Z,81.75
2023-04-09T05:54:13.699Z,82.04
2023-04-09T05:55:15.359Z,81.85
2023-04-09T05:56:16.992Z,81.19
2023-04-09T05:57:18.623Z,81.17
2023-04-09T05:58:21.109Z,81.38
2023-04-09T05:59:22.878Z,81.17
2023-04-09T06:00:24.649Z,80.98
2023-04-09T06:01:26.383Z,81.10
2023-04-09T06:02:28.865Z,80.76
2023-04-09T06:03:30.834Z,80.04
2023-04-09T06:04:32.670Z,80.12
2023-04-09T06:05:34.390Z,80.28
2023-04-09T06:06:38.845Z,80.45
2023-04-09T06:07:40.563Z,80.69
2023-04-09T06:08:42.369Z,80.16
2023-04-09T06:09:44.062Z,80.20
2023-04-09T06:10:45.865Z,79.54
2023-04-09T06:11:47.594Z,78.75
2023-04-09T06:12:49.295Z,78.95
2023-04-09T06:13:51.683Z,78.11
2023-04-09T06:14:53.643Z,78.19
2023-04-09T06:15:55.362Z,77.84
2023-04-09T06:16:59.125Z,77.03
2023-04-09T06:18:00.813Z,76.80
2023-04-09T06:19:02.552Z,76.46
2023-04-09T06:20:04.968Z,76.79
2023-04-09T06:21:08.200Z,75.95
2023-04-09T06:22:10.506Z,76.27
2023-04-09T06:23:12.143Z,76.02
2023-04-09T06:24:13.783Z,76.05
2023-04-09T06:25:15.450Z,76.45
2023-04-09T06:26:17.142Z,76.04
2023-04-09T06:27:18.839Z,75.69
2023-04-09T06:28:20.474Z,75.91
2023-04-09T06:29:24.232Z,75.43
2023-04-09T06:30:26.144Z,75.41
2023-04-09T06:31:27.869Z,75.77
2023-04-09T06:32:29.789Z,76.06
2023-04-09T06:33:32.417Z,76.35
2023-04-09T06:34:34.156Z,76.23
2023-04-09T06:35:35.892Z,75.59
2023-04-09T06:36:37.590Z,74.94
2023-04-09T06:37:39.323Z,74.25
2023-04-09T06:38:41.085Z,74.46
2023-04-09T06:39:50.609Z,74.27
2023-04-09T06:40:59.734Z,74.36
2023-04-09T06:42:01.421Z,74.21
2023-04-09T06:43:03.060Z,74.30
2023-04-09T06:44:04.702Z,73.64
2023-04-09T06:45:07.399Z,74.36
2023-04-09T06:46:09.140Z,74.65
2023-04-09T06:47:11.001Z,74.15
2023-04-09T06:48:12.655Z,73.83
2023-04-09T06:49:14.454Z,75.04
2023-04-09T06:50:16.207Z,74.53
2023-04-09T06:51:17.846Z,74.46
2023-04-09T06:52:19.637Z,74.44
2023-04-09T06:53:21.403Z,74.38
2023-04-09T06:54:23.070Z,73.76
2023-04-09T06:55:24.791Z,73.27
2023-04-09T06:56:26.485Z,72.31
2023-04-09T06:57:28.208Z,72.25
2023-04-09T06:58:29.906Z,72.27
2023-04-09T06:59:31.587Z,72.73
2023-04-09T07:00:33.316Z,72.89
2023-04-09T07:01:35.081Z,72.91
2023-04-09T07:02:37.275Z,72.91
2023-04-09T07:03:39.258Z,73.37
2023-04-09T07:04:41.082Z,73.06
2023-04-09T07:05:42.812Z,72.30
2023-04-09T07:06:44.465Z,72.73
2023-04-09T07:07:46.118Z,73.62
2023-04-09T07:08:47.828Z,73.87
2023-04-09T07:09:49.480Z,73.09
2023-04-09T07:10:51.190Z,72.51
2023-04-09T07:11:52.993Z,71.91
2023-04-09T07:12:54.649Z,71.83
2023-04-09T07:13:56.315Z,72.84
2023-04-09T07:15:01.528Z,72.31
2023-04-09T07:16:03.244Z,72.49
2023-04-09T07:17:04.998Z,72.10
2023-04-09T07:18:07.817Z,71.17
2023-04-09T07:19:09.523Z,71.70
2023-04-09T07:20:11.771Z,71.46
2023-04-09T07:21:13.406Z,71.29
2023-04-09T07:22:15.067Z,70.06
2023-04-09T07:23:16.720Z,70.52
2023-04-09T07:24:18.412Z,71.16
2023-04-09T07:25:20.141Z,71.01
2023-04-09T07:26:21.929Z,71.20
2023-04-09T07:27:27.994Z,70.90
2023-04-09T07:28:29.706Z,70.07
2023-04-09T07:29:31.376Z,70.24
2023-04-09T07:30:33.127Z,69.45
2023-04-09T07:31:36.029Z,69.75
2023-04-09T07:32:38.229Z,70.67
2023-04-09T07:33:40.732Z,70.53
2023-04-09T07:34:43.903Z,70.01
2023-04-09T07:35:45.694Z,69.80
2023-04-09T07:36:47.442Z,70.63
2023-04-09T07:37:49.114Z,70.22
2023-04-09T07:38:51.140Z,70.03
2023-04-09T07:39:53.182Z,69.81
2023-04-09T07:40:54.891Z,70.58
2023-04-09T07:41:56.792Z,70.89
2023-04-09T07:42:58.423Z,70.20
2023-04-09T07:44:00.049Z,69.74
2023-04-09T07:45:01.772Z,68.19
2023-04-09T07:46:03.497Z,68.91
2023-04-09T07:47:06.891Z,68.95
2023-04-09T07:48:08.641Z,67.76
2023-04-09T07:49:10.361Z,68.12
2023-04-09T07:50:12.445Z,67.95
2023-04-09T07:51:14.098Z,67.37
2023-04-09T07:52:15.846Z,68.22
2023-04-09T07:53:17.500Z,66.01
2023-04-09T07:54:19.187Z,65.90
2023-04-09T07:55:20.880Z,64.23
2023-04-09T07:56:22.600Z,64.01
2023-04-09T07:57:24.359Z,62.52
2023-04-09T07:58:26.067Z,62.24
2023-04-09T07:59:27.862Z,63.10
2023-04-09T08:00:29.669Z,63.04
2023-04-09T08:01:31.411Z,64.63
2023-04-09T08:02:33.236Z,65.55
2023-04-09T08:03:35.198Z,64.42
2023-04-09T08:04:37.256Z,62.62
2023-04-09T08:05:39.010Z,62.97
2023-04-09T08:06:40.698Z,63.30
2023-04-09T08:07:42.409Z,64.19
2023-04-09T08:08:44.757Z,64.75
2023-04-09T08:09:46.414Z,65.85
2023-04-09T08:10:48.126Z,64.56
2023-04-09T08:11:50.135Z,64.84
2023-04-09T08:12:51.867Z,65.42
2023-04-09T08:13:54.062Z,65.55
2023-04-09T08:14:55.748Z,65.28
2023-04-09T08:16:01.338Z,65.47
2023-04-09T08:17:03.174Z,65.61
2023-04-09T08:18:04.939Z,66.15
2023-04-09T08:19:06.748Z,66.33
2023-04-09T08:20:09.105Z,65.98
2023-04-09T08:21:10.937Z,66.25
2023-04-09T08:22:12.577Z,65.77
2023-04-09T08:23:14.219Z,66.14
2023-04-09T08:24:16.349Z,65.45
2023-04-09T08:25:18.086Z,64.73
2023-04-09T08:26:19.790Z,63.65
2023-04-09T08:27:21.929Z,63.51
2023-04-09T08:28:23.903Z,64.05
2023-04-09T08:29:26.835Z,64.33
2023-04-09T08:30:28.533Z,64.40
2023-04-09T08:31:30.247Z,64.19
2023-04-09T08:32:31.990Z,64.01
2023-04-09T08:33:33.717Z,63.75
2023-04-09T08:34:35.457Z,63.58
2023-04-09T08:35:37.113Z,63.64
2023-04-09T08:36:38.793Z,63.69
2023-04-09T08:37:40.653Z,64.12
2023-04-09T08:38:42.405Z,64.04
2023-04-09T08:39:44.193Z,63.96
2023-04-09T08:40:45.903Z,63.87
2023-04-09T08:41:47.772Z,62.09
2023-04-09T08:42:56.617Z,61.62
2023-04-09T08:43:59.924Z,61.45
2023-04-09T08:45:05.094Z,60.88
2023-04-09T08:46:06.944Z,60.70
2023-04-09T08:47:09.226Z,60.57
2023-04-09T08:48:13.952Z,59.38
2023-04-09T08:49:16.079Z,56.28
2023-04-09T08:50:18.060Z,57.05
2023-04-09T08:51:21.641Z,56.12
2023-04-09T08:52:34.994Z,57.81
2023-04-09T08:53:37.663Z,55.46
2023-04-09T08:54:39.515Z,56.15
2023-04-09T08:55:48.231Z,56.88
2023-04-09T08:56:49.865Z,57.59
2023-04-09T08:57:51.493Z,58.72
2023-04-09T08:58:54.151Z,60.14
2023-04-09T08:59:55.982Z,59.79
2023-04-09T09:00:57.688Z,58.60
2023-04-09T09:02:12.495Z,59.48
2023-04-09T09:03:14.659Z,61.15
2023-04-09T09:04:16.530Z,59.39
2023-04-09T09:05:36.137Z,59.04
2023-04-09T09:06:41.880Z,58.60
2023-04-09T09:07:53.761Z,59.36
2023-04-09T09:09:06.152Z,59.97
2023-04-09T09:10:08.762Z,59.79
2023-04-09T09:11:10.501Z,59.61
2023-04-09T09:12:12.271Z,59.79
2023-04-09T09:13:23.193Z,58.27
2023-04-09T09:14:24.904Z,58.56
2023-04-09T09:15:29.138Z,60.12
2023-04-09T09:16:31.014Z,60.53
2023-04-09T09:17:33.027Z,61.14
2023-04-09T09:18:43.050Z,61.01
2023-04-09T09:19:44.882Z,62.01
2023-04-09T09:20:46.635Z,62.64
2023-04-09T09:21:56.500Z,60.79
2023-04-09T09:22:58.192Z,60.19
2023-04-09T09:23:59.872Z,60.31
2023-04-09T09:25:01.580Z,60.85
2023-04-09T09:26:12.473Z,59.58
2023-04-09T09:27:31.710Z,59.87
2023-04-09T09:28:35.164Z,59.89
2023-04-09T09:29:41.423Z,60.53
2023-04-09T09:30:43.223Z,59.01
2023-04-09T09:31:50.134Z,59.61
2023-04-09T09:33:13.012Z,59.41
2023-04-09T09:34:15.528Z,61.87
2023-04-09T09:35:17.292Z,62.75
2023-04-09T09:36:35.272Z,62.08
2023-04-09T09:37:36.978Z,59.87
2023-04-09T09:38:55.978Z,60.47
2023-04-09T09:40:01.482Z,61.06
2023-04-09T09:41:17.214Z,60.23
2023-04-09T09:42:18.927Z,59.58
2023-04-09T09:43:20.730Z,60.12
2023-04-09T09:44:33.044Z,59.37
2023-04-09T09:45:36.665Z,59.49
2023-04-09T09:46:40.043Z,59.41
2023-04-09T09:47:41.986Z,58.82
2023-04-09T09:48:45.080Z,59.50
2023-04-09T09:49:49.067Z,56.65
2023-04-09T09:50:51.981Z,55.97
2023-04-09T09:51:56.988Z,57.05
2023-04-09T09:53:03.552Z,55.39
2023-04-09T09:54:08.030Z,56.09
2023-04-09T09:55:13.381Z,56.76
2023-04-09T09:56:18.914Z,57.26
2023-04-09T09:57:20.941Z,56.61
2023-04-09T09:58:27.833Z,58.53
2023-04-09T09:59:34.592Z,57.01
2023-04-09T10:00:37.551Z,55.99
2023-04-09T10:01:40.508Z,55.61
2023-04-09T10:02:53.943Z,53.77
2023-04-09T10:03:59.987Z,52.52
2023-04-09T10:05:01.757Z,51.04
2023-04-09T10:06:03.558Z,50.37
2023-04-09T10:07:06.918Z,51.15
2023-04-09T10:08:10.597Z,50.90
2023-04-09T10:09:13.368Z,50.33
2023-04-09T10:10:15.549Z,50.48
2023-04-09T10:11:18.831Z,51.12
2023-04-09T10:12:23.016Z,51.84
2023-04-09T10:13:44.339Z,49.18
2023-04-09T10:14:46.354Z,49.13
2023-04-09T10:15:48.917Z,50.18
2023-04-09T10:16:51.139Z,48.25
2023-04-09T10:17:52.861Z,48.84
2023-04-09T10:18:59.742Z,48.82
2023-04-09T10:20:24.171Z,48.71
2023-04-09T10:21:31.534Z,49.61
2023-04-09T10:22:34.711Z,47.54
2023-04-09T10:23:44.674Z,49.54
2023-04-09T10:24:46.893Z,47.24
2023-04-09T10:25:48.642Z,47.28
2023-04-09T10:26:54.659Z,47.78
2023-04-09T10:28:02.908Z,49.18
2023-04-09T10:29:06.679Z,48.43
2023-04-09T10:30:08.859Z,49.74
2023-04-09T10:31:11.026Z,50.26
2023-04-09T10:32:17.680Z,51.98
2023-04-09T10:33:24.149Z,51.51
2023-04-09T10:34:27.640Z,53.25
2023-04-09T10:35:29.382Z,52.26
2023-04-09T10:36:31.047Z,51.67
2023-04-09T10:37:36.212Z,51.57
2023-04-09T10:38:44.959Z,49.47
2023-04-09T10:39:48.181Z,50.44
2023-04-09T10:40:51.107Z,51.58
2023-04-09T10:41:54.850Z,50.87
2023-04-09T10:42:58.164Z,49.81
2023-04-09T10:43:59.804Z,51.60
2023-04-09T10:45:12.908Z,49.78
2023-04-09T10:46:30.979Z,49.83
2023-04-09T10:47:35.212Z,50.80
2023-04-09T10:48:36.876Z,49.85
2023-04-09T10:49:42.488Z,50.14
2023-04-09T10:50:44.787Z,50.98
2023-04-09T10:51:52.234Z,49.67
2023-04-09T10:52:56.354Z,50.71
2023-04-09T10:53:58.058Z,50.81
2023-04-09T10:54:59.770Z,49.54
2023-04-09T10:56:01.483Z,49.67
2023-04-09T10:57:08.967Z,49.64
2023-04-09T10:58:13.544Z,49.35
2023-04-09T10:59:15.554Z,48.19
2023-04-09T11:00:17.254Z,47.91
2023-04-09T11:01:22.349Z,47.99
2023-04-09T11:02:39.911Z,48.12
2023-04-09T11:03:45.186Z,47.73
2023-04-09T11:04:55.246Z,47.69
2023-04-09T11:06:04.883Z,48.58
2023-04-09T11:07:08.375Z,47.15
2023-04-09T11:08:14.515Z,45.87
2023-04-09T11:09:16.227Z,44.78
2023-04-09T11:10:18.757Z,46.02
2023-04-09T11:11:26.602Z,45.24
2023-04-09T11:12:28.227Z,45.43
2023-04-09T11:13:31.522Z,44.52
2023-04-09T11:14:36.046Z,45.23
2023-04-09T11:15:39.286Z,43.50
2023-04-09T11:16:41.029Z,42.60
2023-04-09T11:17:43.407Z,42.62
2023-04-09T11:18:45.242Z,43.68
2023-04-09T11:19:47.366Z,43.24
2023-04-09T11:20:49.418Z,43.14
2023-04-09T11:21:51.168Z,43.37
2023-04-09T11:22:54.970Z,42.80
2023-04-09T11:23:56.711Z,42.45
2023-04-09T11:24:58.399Z,41.89
2023-04-09T11:26:00.079Z,42.70
2023-04-09T11:27:01.830Z,42.66
2023-04-09T11:28:04.371Z,42.59
2023-04-09T11:29:07.104Z,43.61
2023-04-09T11:30:09.256Z,42.51
2023-04-09T11:31:10.970Z,42.61
2023-04-09T11:32:13.169Z,42.16
2023-04-09T11:33:16.017Z,41.01
2023-04-09T11:34:19.333Z,42.14
2023-04-09T11:35:22.458Z,42.94
2023-04-09T11:36:24.143Z,42.51
2023-04-09T11:37:25.932Z,41.96
2023-04-09T11:38:27.657Z,42.88
2023-04-09T11:39:29.379Z,42.56
2023-04-09T11:40:31.394Z,44.38
2023-04-09T11:41:37.692Z,43.39
2023-04-09T11:42:39.438Z,42.73
2023-04-09T11:43:41.186Z,43.00
2023-04-09T11:44:45.253Z,43.36
2023-04-09T11:45:47.086Z,41.61
2023-04-09T11:46:49.442Z,42.32
2023-04-09T11:47:51.816Z,42.51
2023-04-09T11:48:54.225Z,42.98
2023-04-09T11:49:56.159Z,43.08
2023-04-09T11:50:58.110Z,42.92
2023-04-09T11:51:59.986Z,43.58
2023-04-09T11:53:01.669Z,43.22
2023-04-09T11:54:03.770Z,44.52
2023-04-09T11:55:06.336Z,43.13
2023-04-09T11:56:08.043Z,43.10
2023-04-09T11:57:09.849Z,42.99
2023-04-09T11:58:11.534Z,42.88
2023-04-09T11:59:15.221Z,44.94
2023-04-09T12:00:17.897Z,42.20
2023-04-09T12:01:22.391Z,42.95
2023-04-09T12:02:24.155Z,43.08
2023-04-09T12:03:33.007Z,43.86
2023-04-09T12:04:35.247Z,43.37
2023-04-09T12:05:38.995Z,43.51
2023-04-09T12:06:42.413Z,44.13
2023-04-09T12:07:55.452Z,44.15
2023-04-09T12:08:59.406Z,44.61
2023-04-09T12:10:05.943Z,44.20
2023-04-09T12:11:08.953Z,44.47
2023-04-09T12:12:10.640Z,43.65
2023-04-09T12:13:12.360Z,43.73
2023-04-09T12:14:16.174Z,43.77
2023-04-09T12:15:22.811Z,43.69
2023-04-09T12:16:24.536Z,43.84
2023-04-09T12:17:26.630Z,43.75
2023-04-09T12:18:28.650Z,43.82
2023-04-09T12:19:31.080Z,44.30
2023-04-09T12:20:47.666Z,44.19
2023-04-09T12:21:50.763Z,45.13
2023-04-09T12:22:52.485Z,44.71
2023-04-09T12:23:54.290Z,45.17
2023-04-09T12:24:56.023Z,44.89
2023-04-09T12:25:58.213Z,44.53
2023-04-09T12:26:59.885Z,45.03
2023-04-09T12:28:01.812Z,45.44
2023-04-09T12:29:03.556Z,44.10
2023-04-09T12:30:06.076Z,44.16
2023-04-09T12:31:10.679Z,44.23
2023-04-09T12:32:12.919Z,43.13
2023-04-09T12:33:14.678Z,43.05
2023-04-09T12:34:16.489Z,43.04
2023-04-09T12:35:18.325Z,42.66
2023-04-09T12:36:20.056Z,43.81
2023-04-09T12:37:21.866Z,43.38
2023-04-09T12:38:23.557Z,43.05
2023-04-09T12:39:25.316Z,45.98
2023-04-09T12:40:27.493Z,48.57
2023-04-09T12:41:29.209Z,49.70
2023-04-09T12:42:31.049Z,50.44
2023-04-09T12:43:32.702Z,51.88
2023-04-09T12:44:34.511Z,52.70
2023-04-09T12:45:36.256Z,53.59
2023-04-09T12:46:38.338Z,53.93
2023-04-09T12:47:40.671Z,53.80
2023-04-09T12:48:42.780Z,54.54
2023-04-09T12:49:45.072Z,54.54
2023-04-09T12:50:46.862Z,54.74
2023-04-09T12:51:48.581Z,55.92
2023-04-09T12:52:50.675Z,56.80
2023-04-09T12:53:52.640Z,57.09
2023-04-09T12:54:54.714Z,56.93
2023-04-09T12:55:56.687Z,57.10
2023-04-09T12:56:58.328Z,57.33
2023-04-09T12:57:59.969Z,57.74
2023-04-09T12:59:01.686Z,56.78
2023-04-09T13:00:03.540Z,56.78
2023-04-09T13:01:05.877Z,56.77
2023-04-09T13:02:08.099Z,56.44
2023-04-09T13:03:10.082Z,56.80
2023-04-09T13:04:12.043Z,56.82
2023-04-09T13:05:13.971Z,56.81
2023-04-09T13:06:15.604Z,57.07
2023-04-09T13:07:17.725Z,57.56
2023-04-09T13:08:19.419Z,57.75
2023-04-09T13:09:21.199Z,57.55
2023-04-09T13:10:22.972Z,57.69
2023-04-09T13:11:24.723Z,57.85
2023-04-09T13:12:26.497Z,58.38
2023-04-09T13:13:28.332Z,57.76
2023-04-09T13:14:30.069Z,56.64
2023-04-09T13:15:31.753Z,56.17
2023-04-09T13:16:33.662Z,56.72
2023-04-09T13:17:35.506Z,56.86
2023-04-09T13:18:37.623Z,57.65
2023-04-09T13:19:40.856Z,57.06
2023-04-09T13:20:44.232Z,57.25
2023-04-09T13:21:46.144Z,57.51
2023-04-09T13:22:47.860Z,57.91
2023-04-09T13:23:49.606Z,57.53
2023-04-09T13:24:51.229Z,56.20
2023-04-09T13:25:52.911Z,55.97
2023-04-09T13:26:54.664Z,55.91
2023-04-09T13:27:56.437Z,56.16
2023-04-09T13:28:58.218Z,55.86
2023-04-09T13:29:59.930Z,54.09
2023-04-09T13:31:03.003Z,53.49
2023-04-09T13:32:04.914Z,53.55
2023-04-09T13:33:06.701Z,54.84
2023-04-09T13:34:08.418Z,55.27
2023-04-09T13:35:10.357Z,56.12